DIRECCIÓN GENERAL DE AERONÁUTICA CIVIL
DIRECCIÓN METEOROLÓGICA DE CHILE
INFORMACIÓN METAR Y TAF

FIR PUERTO MONTT

Estación: SCQP
METAR SCQP 230200Z 01007KT 9999 OVC026 10/09 Q1018=

TAF SCQP 222218Z 2300/2324 33006KT 8000 FEW015 BKN030 TN05/2311Z TX11 /2319Z TEMPO 2301/2306 25004KT 3400 -RA SHRA BKN008 OVC020 BECMG 2306/2308 VRB02KT SCT010 BKN040 BECMG 2314/2316 24008KT 9999 NSW FEW030=

Estación: SCVD
METAR SCVD 230200Z AUTO 24005KT 200V270 9999 -RA SCT028 BKN036 OVC050 11/10 Q1018=

TAF SCVD 221635Z 2218/2306 32010KT 9999 SCT020 BKN040 TX14/2218Z TN07 /2306Z BECMG 2219/2221 26008KT 5000 -SHRA BKN025 TEMPO 2223/2303 3000 RA -SHRA SCT008 OVC020=

Estación: SCJO
METAR SCJO 222200Z 32005KT 3000 RA SCT006 OVC025 11/11 Q1015=

TAF SCJO 221636Z 2218/2306 29010KT 5000 RA -SHRA BKN015 OVC025 TX13/ 2218Z TN06/2306Z TEMPO 2219/2221 3000 RA OVC020 BECMG 2303/2305 8000 BKN020=

Estación: SCTE
METAR SCTE 230200Z 32002KT 7000 -SHRA SCT020 OVC050 07/06 Q1018 NOSIG =

TAF SCTE 222218Z 2300/2324 24005KT 9999 SCT010 BKN035 TN03/2311Z TX10 /2319Z TEMPO 2302/2310 VRB02KT 5000 -RA -SHRA SCT015 BKN020 BECMG 2310/2312 VRB01KT 9999 SCT040 BECMG 2314/2316 17007KT=

Estación: SCPQ
METAR SCPQ 230200Z AUTO 05005KT CAVOK 04/03 Q1016=

TAF SCPQ 221638Z 2218/2306 27010KT 9999 SCT020 BKN040 TX12/2218Z TN06 /2306Z TEMPO 2218/2221 26012G24KT 5000 SHRA BKN020TCU BECMG 2300/2302 20005KT SCT035=

Estación: SCON
METAR SCON 230200Z AUTO VRB02KT CAVOK 06/03 Q1016=

TAF SCON NIL=

Estación: SCTN
METAR SCTN 230200Z AUTO 29004KT 250V330 9999 FEW028 08/05 Q1016=

TAF SCTN 221639Z 2218/2306 29008KT 9999 SCT020 BKN040 TX11/2218Z TN06 /2306Z TEMPO 2218/2221 5000 SHRA BKN020TCU BECMG 2300/2302 23004KT SCT025=

Estación: SCFT
METAR SCFT 230200Z AUTO 27003KT 190V350 CAVOK 04/01 Q1014=

NIL=

Estación: SCAP
METAR SCAP 230200Z AUTO 19008G18KT 130V250 //// // SCT012 04/01 Q1019=

NIL=

Estación: SCMK
METAR SCMK 222100Z 25008KT 9999 BKN013 08/04 Q1010=

TAF SCMK 221639Z 2218/2306 25010KT 9999 SCT020 BKN040 TX12/2218Z TN07 /2306Z TEMPO 2218/2221 25015G25KT 5000 SHRA BKN020TCU BECMG 2300/2302 19004KT SCT030=

Estación: SCAS
METAR SCAS 221900Z 00000KT 9999 -SHRA BKN033 07/03 Q1007=

NIL=

Estación: SCCY
METAR SCCY 230000Z 34001KT 9999 BKN030 02/01 Q1008=

TAF SCCY 221639Z 2218/2306 17008KT 9999 BKN030 TX08/2218Z TN00/2306Z TEMPO 2218/2221 04005KT 5000 -SHRA BKN020=

Estación: SCBA
METAR SCBA 230200Z AUTO 31017KT CAVOK 01/M01 Q1006=

TAF SCBA 222219Z 2300/2324 30014KT 9999 SCT035 TNM03/2311Z TX06/2318Z PROB30 TEMPO 2303/2308 26003KT 3000 -RASN BKN020 BECMG 2320/2322 BKN020=

Estación: SCCC
METAR SCCC 221900Z 28017G28KT 9999 FEW036 09/M07 Q1001=

NIL=

Estación: SCHR
METAR SCHR 221900Z 00000KT 9999 BKN025 04/02 Q1000=

TAF SCHR 221027Z 2212/2300 27008KT 9000 -SHRA -SHRASN BKN030 TN03/2212Z TX06/2218Z TEMPO 2212/2216 7000 -SHRASN -SHSN BKN015=


Volver